sensor_id;sensor_type;location;lat;lon;timestamp;P1;durP1;ratioP1;P2;durP2;ratioP2
13122;SDS011;6627;50.920;12.050;2022-08-07T00:01:00;2.83;;;2.40;;
13122;SDS011;6627;50.920;12.050;2022-08-07T00:03:34;4.97;;;2.67;;
13122;SDS011;6627;50.920;12.050;2022-08-07T00:06:09;2.73;;;2.50;;
13122;SDS011;6627;50.920;12.050;2022-08-07T00:08:39;3.07;;;2.43;;
13122;SDS011;6627;50.920;12.050;2022-08-07T00:11:10;2.63;;;2.20;;
13122;SDS011;6627;50.920;12.050;2022-08-07T00:13:42;4.17;;;2.10;;
13122;SDS011;6627;50.920;12.050;2022-08-07T00:16:15;4.23;;;2.20;;
13122;SDS011;6627;50.920;12.050;2022-08-07T00:18:45;2.10;;;1.80;;
13122;SDS011;6627;50.920;12.050;2022-08-07T00:21:19;2.87;;;2.00;;
13122;SDS011;6627;50.920;12.050;2022-08-07T00:23:53;5.37;;;2.10;;
13122;SDS011;6627;50.920;12.050;2022-08-07T00:26:27;5.43;;;1.77;;
13122;SDS011;6627;50.920;12.050;2022-08-07T00:28:58;3.57;;;1.70;;
13122;SDS011;6627;50.920;12.050;2022-08-07T00:31:36;3.40;;;1.60;;
13122;SDS011;6627;50.920;12.050;2022-08-07T00:34:10;3.77;;;1.90;;
13122;SDS011;6627;50.920;12.050;2022-08-07T00:36:41;2.23;;;1.90;;
13122;SDS011;6627;50.920;12.050;2022-08-07T00:39:16;2.10;;;1.90;;
13122;SDS011;6627;50.920;12.050;2022-08-07T00:41:55;4.13;;;1.90;;
13122;SDS011;6627;50.920;12.050;2022-08-07T00:44:31;3.67;;;2.00;;
13122;SDS011;6627;50.920;12.050;2022-08-07T00:47:04;3.10;;;1.90;;
13122;SDS011;6627;50.920;12.050;2022-08-07T00:49:38;3.13;;;1.80;;
13122;SDS011;6627;50.920;12.050;2022-08-07T00:52:07;3.40;;;2.00;;
13122;SDS011;6627;50.920;12.050;2022-08-07T00:54:39;3.83;;;1.97;;
13122;SDS011;6627;50.920;12.050;2022-08-07T00:57:11;4.23;;;1.67;;
13122;SDS011;6627;50.920;12.050;2022-08-07T00:59:45;3.23;;;1.90;;
13122;SDS011;6627;50.920;12.050;2022-08-07T01:02:19;5.17;;;1.97;;
13122;SDS011;6627;50.920;12.050;2022-08-07T01:04:53;2.90;;;2.23;;
13122;SDS011;6627;50.920;12.050;2022-08-07T01:07:26;3.37;;;2.13;;
13122;SDS011;6627;50.920;12.050;2022-08-07T01:10:00;2.57;;;2.20;;
13122;SDS011;6627;50.920;12.050;2022-08-07T01:12:34;2.47;;;2.07;;
13122;SDS011;6627;50.920;12.050;2022-08-07T01:15:05;2.90;;;2.10;;
13122;SDS011;6627;50.920;12.050;2022-08-07T01:17:37;3.60;;;2.03;;
13122;SDS011;6627;50.920;12.050;2022-08-07T01:20:08;2.73;;;2.10;;
13122;SDS011;6627;50.920;12.050;2022-08-07T01:22:42;2.97;;;2.10;;
13122;SDS011;6627;50.920;12.050;2022-08-07T01:25:17;2.63;;;1.93;;
13122;SDS011;6627;50.920;12.050;2022-08-07T01:27:50;3.50;;;2.00;;
13122;SDS011;6627;50.920;12.050;2022-08-07T01:30:22;3.00;;;2.03;;
13122;SDS011;6627;50.920;12.050;2022-08-07T01:32:53;3.17;;;2.23;;
13122;SDS011;6627;50.920;12.050;2022-08-07T01:35:26;2.17;;;1.97;;
13122;SDS011;6627;50.920;12.050;2022-08-07T01:37:58;2.20;;;1.90;;
13122;SDS011;6627;50.920;12.050;2022-08-07T01:40:29;2.63;;;2.00;;
13122;SDS011;6627;50.920;12.050;2022-08-07T01:43:02;2.40;;;1.87;;
13122;SDS011;6627;50.920;12.050;2022-08-07T01:45:36;2.67;;;1.97;;
13122;SDS011;6627;50.920;12.050;2022-08-07T01:48:09;6.20;;;1.97;;
13122;SDS011;6627;50.920;12.050;2022-08-07T01:50:38;4.47;;;1.97;;
13122;SDS011;6627;50.920;12.050;2022-08-07T01:53:11;2.23;;;1.77;;
13122;SDS011;6627;50.920;12.050;2022-08-07T01:55:50;2.23;;;1.80;;
13122;SDS011;6627;50.920;12.050;2022-08-07T01:58:31;2.63;;;1.80;;
13122;SDS011;6627;50.920;12.050;2022-08-07T02:01:22;2.40;;;2.20;;
13122;SDS011;6627;50.920;12.050;2022-08-07T02:03:56;2.07;;;1.80;;
13122;SDS011;6627;50.920;12.050;2022-08-07T02:06:50;2.20;;;2.00;;
13122;SDS011;6627;50.920;12.050;2022-08-07T02:09:30;3.90;;;1.90;;
13122;SDS011;6627;50.920;12.050;2022-08-07T02:12:00;2.27;;;2.00;;
13122;SDS011;6627;50.920;12.050;2022-08-07T02:14:50;3.70;;;2.23;;
13122;SDS011;6627;50.920;12.050;2022-08-07T02:17:28;3.30;;;2.47;;
13122;SDS011;6627;50.920;12.050;2022-08-07T02:20:00;3.07;;;2.30;;
13122;SDS011;6627;50.920;12.050;2022-08-07T02:22:37;3.70;;;2.97;;
13122;SDS011;6627;50.920;12.050;2022-08-07T02:25:12;3.40;;;2.50;;
13122;SDS011;6627;50.920;12.050;2022-08-07T02:27:48;4.70;;;2.20;;
13122;SDS011;6627;50.920;12.050;2022-08-07T02:30:19;2.97;;;2.20;;
13122;SDS011;6627;50.920;12.050;2022-08-07T02:32:57;3.60;;;2.30;;
13122;SDS011;6627;50.920;12.050;2022-08-07T02:35:31;3.97;;;2.40;;
13122;SDS011;6627;50.920;12.050;2022-08-07T02:38:09;3.00;;;2.60;;
13122;SDS011;6627;50.920;12.050;2022-08-07T02:40:43;2.40;;;2.20;;
13122;SDS011;6627;50.920;12.050;2022-08-07T02:43:19;4.40;;;2.70;;
13122;SDS011;6627;50.920;12.050;2022-08-07T02:45:52;2.67;;;2.47;;
13122;SDS011;6627;50.920;12.050;2022-08-07T02:48:26;3.63;;;2.40;;
13122;SDS011;6627;50.920;12.050;2022-08-07T02:51:02;3.40;;;2.87;;
13122;SDS011;6627;50.920;12.050;2022-08-07T02:53:41;4.03;;;2.60;;
13122;SDS011;6627;50.920;12.050;2022-08-07T02:56:22;4.60;;;2.90;;
13122;SDS011;6627;50.920;12.050;2022-08-07T02:59:01;7.90;;;2.70;;
13122;SDS011;6627;50.920;12.050;2022-08-07T03:01:38;4.53;;;2.30;;
13122;SDS011;6627;50.920;12.050;2022-08-07T03:04:14;2.33;;;2.13;;
13122;SDS011;6627;50.920;12.050;2022-08-07T03:06:49;2.27;;;1.77;;
13122;SDS011;6627;50.920;12.050;2022-08-07T03:09:24;3.43;;;2.03;;
13122;SDS011;6627;50.920;12.050;2022-08-07T03:12:01;3.57;;;2.17;;
13122;SDS011;6627;50.920;12.050;2022-08-07T03:14:35;2.37;;;2.00;;
13122;SDS011;6627;50.920;12.050;2022-08-07T03:17:12;3.77;;;2.70;;
13122;SDS011;6627;50.920;12.050;2022-08-07T03:19:50;2.97;;;2.60;;
13122;SDS011;6627;50.920;12.050;2022-08-07T03:22:21;3.23;;;2.30;;
13122;SDS011;6627;50.920;12.050;2022-08-07T03:24:55;4.60;;;2.60;;
13122;SDS011;6627;50.920;12.050;2022-08-07T03:27:28;6.40;;;2.43;;
13122;SDS011;6627;50.920;12.050;2022-08-07T03:30:05;4.13;;;2.47;;
13122;SDS011;6627;50.920;12.050;2022-08-07T03:32:38;2.83;;;2.40;;
13122;SDS011;6627;50.920;12.050;2022-08-07T03:35:13;7.80;;;3.20;;
13122;SDS011;6627;50.920;12.050;2022-08-07T03:37:49;2.57;;;2.37;;
13122;SDS011;6627;50.920;12.050;2022-08-07T03:40:25;3.10;;;2.43;;
13122;SDS011;6627;50.920;12.050;2022-08-07T03:43:01;2.30;;;2.07;;
13122;SDS011;6627;50.920;12.050;2022-08-07T03:45:35;4.10;;;2.20;;
13122;SDS011;6627;50.920;12.050;2022-08-07T03:48:11;4.27;;;2.03;;
13122;SDS011;6627;50.920;12.050;2022-08-07T03:50:43;4.07;;;2.53;;
13122;SDS011;6627;50.920;12.050;2022-08-07T03:53:20;6.37;;;2.50;;
13122;SDS011;6627;50.920;12.050;2022-08-07T03:55:50;3.23;;;2.57;;
13122;SDS011;6627;50.920;12.050;2022-08-07T03:58:25;3.23;;;2.80;;
13122;SDS011;6627;50.920;12.050;2022-08-07T04:00:57;4.37;;;2.57;;
13122;SDS011;6627;50.920;12.050;2022-08-07T04:03:31;4.20;;;2.47;;
13122;SDS011;6627;50.920;12.050;2022-08-07T04:06:06;3.40;;;3.00;;
13122;SDS011;6627;50.920;12.050;2022-08-07T04:08:38;3.00;;;2.70;;
13122;SDS011;6627;50.920;12.050;2022-08-07T04:11:15;3.77;;;2.43;;
13122;SDS011;6627;50.920;12.050;2022-08-07T04:13:48;5.00;;;2.43;;
13122;SDS011;6627;50.920;12.050;2022-08-07T04:16:21;4.67;;;2.70;;
13122;SDS011;6627;50.920;12.050;2022-08-07T04:18:55;3.33;;;2.87;;
13122;SDS011;6627;50.920;12.050;2022-08-07T04:21:27;3.40;;;2.57;;
13122;SDS011;6627;50.920;12.050;2022-08-07T04:24:01;3.10;;;2.80;;
13122;SDS011;6627;50.920;12.050;2022-08-07T04:26:37;3.30;;;3.00;;
13122;SDS011;6627;50.920;12.050;2022-08-07T04:29:15;3.90;;;2.80;;
13122;SDS011;6627;50.920;12.050;2022-08-07T04:31:50;9.90;;;3.13;;
13122;SDS011;6627;50.920;12.050;2022-08-07T04:34:21;5.53;;;2.70;;
13122;SDS011;6627;50.920;12.050;2022-08-07T04:36:55;3.57;;;3.13;;
13122;SDS011;6627;50.920;12.050;2022-08-07T04:39:27;3.63;;;2.60;;
13122;SDS011;6627;50.920;12.050;2022-08-07T04:42:00;2.73;;;2.53;;
13122;SDS011;6627;50.920;12.050;2022-08-07T04:44:37;2.83;;;2.60;;
13122;SDS011;6627;50.920;12.050;2022-08-07T04:47:10;3.40;;;2.60;;
13122;SDS011;6627;50.920;12.050;2022-08-07T04:49:52;3.13;;;2.50;;
13122;SDS011;6627;50.920;12.050;2022-08-07T04:52:38;3.70;;;2.50;;
13122;SDS011;6627;50.920;12.050;2022-08-07T04:55:21;4.07;;;2.43;;
13122;SDS011;6627;50.920;12.050;2022-08-07T04:58:01;3.70;;;2.40;;
13122;SDS011;6627;50.920;12.050;2022-08-07T05:00:52;2.67;;;2.47;;
13122;SDS011;6627;50.920;12.050;2022-08-07T05:03:30;2.80;;;2.13;;
13122;SDS011;6627;50.920;12.050;2022-08-07T05:06:12;3.10;;;2.20;;
13122;SDS011;6627;50.920;12.050;2022-08-07T05:08:54;2.77;;;2.50;;
13122;SDS011;6627;50.920;12.050;2022-08-07T05:11:33;3.47;;;2.20;;
13122;SDS011;6627;50.920;12.050;2022-08-07T05:14:18;2.57;;;2.37;;
13122;SDS011;6627;50.920;12.050;2022-08-07T05:17:02;2.70;;;2.50;;
13122;SDS011;6627;50.920;12.050;2022-08-07T05:19:37;2.80;;;2.60;;
13122;SDS011;6627;50.920;12.050;2022-08-07T05:22:17;3.07;;;2.80;;
13122;SDS011;6627;50.920;12.050;2022-08-07T05:24:55;4.60;;;2.73;;
13122;SDS011;6627;50.920;12.050;2022-08-07T05:27:37;5.40;;;2.90;;
13122;SDS011;6627;50.920;12.050;2022-08-07T05:30:12;2.80;;;2.60;;
13122;SDS011;6627;50.920;12.050;2022-08-07T05:32:48;3.40;;;2.90;;
13122;SDS011;6627;50.920;12.050;2022-08-07T05:35:21;2.50;;;2.30;;
13122;SDS011;6627;50.920;12.050;2022-08-07T05:37:56;3.83;;;2.47;;
13122;SDS011;6627;50.920;12.050;2022-08-07T05:40:34;3.20;;;2.20;;
13122;SDS011;6627;50.920;12.050;2022-08-07T05:43:13;5.40;;;2.70;;
13122;SDS011;6627;50.920;12.050;2022-08-07T05:45:46;2.50;;;2.30;;
13122;SDS011;6627;50.920;12.050;2022-08-07T05:48:21;2.30;;;2.10;;
13122;SDS011;6627;50.920;12.050;2022-08-07T05:50:52;4.97;;;2.83;;
13122;SDS011;6627;50.920;12.050;2022-08-07T05:53:22;3.73;;;2.40;;
13122;SDS011;6627;50.920;12.050;2022-08-07T05:55:56;2.97;;;2.47;;
13122;SDS011;6627;50.920;12.050;2022-08-07T05:58:28;3.43;;;2.50;;
13122;SDS011;6627;50.920;12.050;2022-08-07T06:01:06;3.53;;;2.60;;
13122;SDS011;6627;50.920;12.050;2022-08-07T06:03:42;3.83;;;2.53;;
13122;SDS011;6627;50.920;12.050;2022-08-07T06:06:20;2.67;;;2.47;;
13122;SDS011;6627;50.920;12.050;2022-08-07T06:08:55;2.40;;;2.20;;
13122;SDS011;6627;50.920;12.050;2022-08-07T06:11:27;3.17;;;2.10;;
13122;SDS011;6627;50.920;12.050;2022-08-07T06:14:00;2.73;;;2.30;;
13122;SDS011;6627;50.920;12.050;2022-08-07T06:16:40;2.60;;;2.40;;
13122;SDS011;6627;50.920;12.050;2022-08-07T06:19:21;3.70;;;2.40;;
13122;SDS011;6627;50.920;12.050;2022-08-07T06:21:55;2.43;;;2.23;;
13122;SDS011;6627;50.920;12.050;2022-08-07T06:24:25;4.47;;;2.50;;
13122;SDS011;6627;50.920;12.050;2022-08-07T06:26:58;3.03;;;2.60;;
13122;SDS011;6627;50.920;12.050;2022-08-07T06:29:32;4.60;;;2.40;;
13122;SDS011;6627;50.920;12.050;2022-08-07T06:32:04;5.00;;;2.40;;
13122;SDS011;6627;50.920;12.050;2022-08-07T06:34:42;4.13;;;2.90;;
13122;SDS011;6627;50.920;12.050;2022-08-07T06:37:13;5.73;;;2.60;;
13122;SDS011;6627;50.920;12.050;2022-08-07T06:39:43;4.17;;;2.50;;
13122;SDS011;6627;50.920;12.050;2022-08-07T06:42:16;2.60;;;2.40;;
13122;SDS011;6627;50.920;12.050;2022-08-07T06:44:57;5.17;;;2.67;;
13122;SDS011;6627;50.920;12.050;2022-08-07T06:47:29;4.07;;;2.40;;
13122;SDS011;6627;50.920;12.050;2022-08-07T06:49:59;6.23;;;2.40;;
13122;SDS011;6627;50.920;12.050;2022-08-07T06:52:32;8.50;;;2.90;;
13122;SDS011;6627;50.920;12.050;2022-08-07T06:55:08;9.80;;;2.63;;
13122;SDS011;6627;50.920;12.050;2022-08-07T06:57:43;6.27;;;2.37;;
13122;SDS011;6627;50.920;12.050;2022-08-07T07:00:18;5.27;;;3.00;;
13122;SDS011;6627;50.920;12.050;2022-08-07T07:02:48;7.07;;;2.80;;
13122;SDS011;6627;50.920;12.050;2022-08-07T07:05:23;6.13;;;2.87;;
13122;SDS011;6627;50.920;12.050;2022-08-07T07:07:55;4.83;;;2.87;;
13122;SDS011;6627;50.920;12.050;2022-08-07T07:10:32;5.90;;;2.90;;
13122;SDS011;6627;50.920;12.050;2022-08-07T07:13:03;7.93;;;2.90;;
13122;SDS011;6627;50.920;12.050;2022-08-07T07:15:47;5.47;;;2.50;;
13122;SDS011;6627;50.920;12.050;2022-08-07T07:18:33;7.00;;;2.57;;
13122;SDS011;6627;50.920;12.050;2022-08-07T07:21:15;2.87;;;2.13;;
13122;SDS011;6627;50.920;12.050;2022-08-07T07:23:52;5.53;;;2.10;;
13122;SDS011;6627;50.920;12.050;2022-08-07T07:26:23;7.03;;;2.40;;
13122;SDS011;6627;50.920;12.050;2022-08-07T07:29:01;4.70;;;2.30;;
13122;SDS011;6627;50.920;12.050;2022-08-07T07:31:38;3.33;;;1.97;;
13122;SDS011;6627;50.920;12.050;2022-08-07T07:34:21;4.90;;;1.70;;
13122;SDS011;6627;50.920;12.050;2022-08-07T07:37:02;3.10;;;2.17;;
13122;SDS011;6627;50.920;12.050;2022-08-07T07:39:33;4.90;;;1.70;;
13122;SDS011;6627;50.920;12.050;2022-08-07T07:42:14;3.00;;;1.63;;
13122;SDS011;6627;50.920;12.050;2022-08-07T07:44:51;4.57;;;1.60;;
13122;SDS011;6627;50.920;12.050;2022-08-07T07:47:28;4.83;;;1.73;;
13122;SDS011;6627;50.920;12.050;2022-08-07T07:50:05;4.33;;;1.70;;
13122;SDS011;6627;50.920;12.050;2022-08-07T07:52:39;2.93;;;1.50;;
13122;SDS011;6627;50.920;12.050;2022-08-07T07:55:19;3.53;;;1.43;;
13122;SDS011;6627;50.920;12.050;2022-08-07T07:57:53;4.90;;;1.40;;
13122;SDS011;6627;50.920;12.050;2022-08-07T08:00:27;2.67;;;1.27;;
13122;SDS011;6627;50.920;12.050;2022-08-07T08:02:59;2.70;;;1.27;;
13122;SDS011;6627;50.920;12.050;2022-08-07T08:05:40;3.80;;;1.40;;
13122;SDS011;6627;50.920;12.050;2022-08-07T08:08:11;3.73;;;1.20;;
13122;SDS011;6627;50.920;12.050;2022-08-07T08:10:44;1.53;;;1.10;;
13122;SDS011;6627;50.920;12.050;2022-08-07T08:13:21;3.57;;;1.10;;
13122;SDS011;6627;50.920;12.050;2022-08-07T08:16:02;2.93;;;0.93;;
13122;SDS011;6627;50.920;12.050;2022-08-07T08:18:37;2.50;;;1.23;;
13122;SDS011;6627;50.920;12.050;2022-08-07T08:21:14;1.93;;;1.10;;
13122;SDS011;6627;50.920;12.050;2022-08-07T08:24:00;1.67;;;0.90;;
13122;SDS011;6627;50.920;12.050;2022-08-07T08:27:00;2.53;;;0.97;;
13122;SDS011;6627;50.920;12.050;2022-08-07T08:29:39;2.13;;;1.00;;
13122;SDS011;6627;50.920;12.050;2022-08-07T08:32:19;1.70;;;0.80;;
13122;SDS011;6627;50.920;12.050;2022-08-07T08:34:55;1.97;;;0.90;;
13122;SDS011;6627;50.920;12.050;2022-08-07T08:37:29;1.53;;;0.80;;
13122;SDS011;6627;50.920;12.050;2022-08-07T08:40:08;2.30;;;0.90;;
13122;SDS011;6627;50.920;12.050;2022-08-07T08:42:48;2.80;;;0.80;;
13122;SDS011;6627;50.920;12.050;2022-08-07T08:45:31;2.63;;;0.80;;
13122;SDS011;6627;50.920;12.050;2022-08-07T08:48:19;1.17;;;0.77;;
13122;SDS011;6627;50.920;12.050;2022-08-07T08:51:01;1.77;;;1.00;;
13122;SDS011;6627;50.920;12.050;2022-08-07T08:53:46;1.13;;;0.80;;
13122;SDS011;6627;50.920;12.050;2022-08-07T08:56:27;1.87;;;0.80;;
13122;SDS011;6627;50.920;12.050;2022-08-07T08:59:13;1.13;;;0.80;;
13122;SDS011;6627;50.920;12.050;2022-08-07T09:02:03;0.60;;;0.60;;
13122;SDS011;6627;50.920;12.050;2022-08-07T09:04:49;1.10;;;0.80;;
13122;SDS011;6627;50.920;12.050;2022-08-07T09:07:37;2.93;;;0.93;;
13122;SDS011;6627;50.920;12.050;2022-08-07T09:10:22;1.30;;;0.80;;
13122;SDS011;6627;50.920;12.050;2022-08-07T09:12:58;1.30;;;0.70;;
13122;SDS011;6627;50.920;12.050;2022-08-07T09:15:57;0.87;;;0.70;;
13122;SDS011;6627;50.920;12.050;2022-08-07T09:18:49;1.57;;;1.00;;
13122;SDS011;6627;50.920;12.050;2022-08-07T09:21:47;1.20;;;0.90;;
13122;SDS011;6627;50.920;12.050;2022-08-07T09:24:46;1.50;;;0.80;;
13122;SDS011;6627;50.920;12.050;2022-08-07T09:27:32;1.33;;;0.90;;
13122;SDS011;6627;50.920;12.050;2022-08-07T09:30:21;2.20;;;1.00;;
13122;SDS011;6627;50.920;12.050;2022-08-07T09:33:05;0.73;;;0.50;;
13122;SDS011;6627;50.920;12.050;2022-08-07T09:35:57;1.23;;;0.90;;
13122;SDS011;6627;50.920;12.050;2022-08-07T09:38:48;3.00;;;0.83;;
13122;SDS011;6627;50.920;12.050;2022-08-07T09:41:33;1.47;;;0.73;;
13122;SDS011;6627;50.920;12.050;2022-08-07T09:44:18;2.43;;;0.90;;
13122;SDS011;6627;50.920;12.050;2022-08-07T09:47:05;2.43;;;0.73;;
13122;SDS011;6627;50.920;12.050;2022-08-07T09:49:47;2.43;;;0.97;;
13122;SDS011;6627;50.920;12.050;2022-08-07T09:52:32;2.50;;;0.70;;
13122;SDS011;6627;50.920;12.050;2022-08-07T09:55:19;1.57;;;0.80;;
13122;SDS011;6627;50.920;12.050;2022-08-07T09:58:13;1.10;;;0.90;;
13122;SDS011;6627;50.920;12.050;2022-08-07T10:01:39;2.30;;;0.80;;
13122;SDS011;6627;50.920;12.050;2022-08-07T10:04:43;1.37;;;0.90;;
13122;SDS011;6627;50.920;12.050;2022-08-07T10:07:47;2.60;;;0.90;;
13122;SDS011;6627;50.920;12.050;2022-08-07T10:10:39;0.70;;;0.67;;
13122;SDS011;6627;50.920;12.050;2022-08-07T10:13:35;1.60;;;0.80;;
13122;SDS011;6627;50.920;12.050;2022-08-07T10:16:33;0.70;;;0.70;;
13122;SDS011;6627;50.920;12.050;2022-08-07T10:19:47;2.43;;;1.00;;
13122;SDS011;6627;50.920;12.050;2022-08-07T10:22:37;5.20;;;1.40;;
13122;SDS011;6627;50.920;12.050;2022-08-07T10:25:43;4.43;;;2.17;;
13122;SDS011;6627;50.920;12.050;2022-08-07T10:28:30;1.70;;;0.80;;
13122;SDS011;6627;50.920;12.050;2022-08-07T10:31:37;2.70;;;1.50;;
13122;SDS011;6627;50.920;12.050;2022-08-07T10:34:30;1.77;;;0.77;;
13122;SDS011;6627;50.920;12.050;2022-08-07T10:37:21;1.90;;;0.83;;
13122;SDS011;6627;50.920;12.050;2022-08-07T10:40:17;1.97;;;0.90;;
13122;SDS011;6627;50.920;12.050;2022-08-07T10:42:57;1.10;;;0.73;;
13122;SDS011;6627;50.920;12.050;2022-08-07T10:45:42;1.93;;;0.83;;
13122;SDS011;6627;50.920;12.050;2022-08-07T10:48:29;1.37;;;0.70;;
13122;SDS011;6627;50.920;12.050;2022-08-07T10:51:16;1.27;;;0.90;;
13122;SDS011;6627;50.920;12.050;2022-08-07T10:54:00;1.47;;;1.00;;
13122;SDS011;6627;50.920;12.050;2022-08-07T10:57:09;1.87;;;1.00;;
13122;SDS011;6627;50.920;12.050;2022-08-07T10:59:57;6.43;;;3.93;;
13122;SDS011;6627;50.920;12.050;2022-08-07T11:02:43;4.23;;;1.10;;
13122;SDS011;6627;50.920;12.050;2022-08-07T11:05:41;1.87;;;1.17;;
13122;SDS011;6627;50.920;12.050;2022-08-07T11:08:28;1.30;;;1.20;;
13122;SDS011;6627;50.920;12.050;2022-08-07T11:11:10;2.63;;;0.70;;
13122;SDS011;6627;50.920;12.050;2022-08-07T11:13:58;4.40;;;1.90;;
13122;SDS011;6627;50.920;12.050;2022-08-07T11:16:44;1.83;;;1.23;;
13122;SDS011;6627;50.920;12.050;2022-08-07T11:19:28;0.90;;;0.90;;
13122;SDS011;6627;50.920;12.050;2022-08-07T11:22:06;3.10;;;1.03;;
13122;SDS011;6627;50.920;12.050;2022-08-07T11:24:50;2.00;;;0.80;;
13122;SDS011;6627;50.920;12.050;2022-08-07T11:27:39;1.50;;;1.30;;
13122;SDS011;6627;50.920;12.050;2022-08-07T11:30:32;1.60;;;1.10;;
13122;SDS011;6627;50.920;12.050;2022-08-07T11:33:20;2.47;;;1.27;;
13122;SDS011;6627;50.920;12.050;2022-08-07T11:36:08;2.87;;;0.90;;
13122;SDS011;6627;50.920;12.050;2022-08-07T11:38:58;1.10;;;0.80;;
13122;SDS011;6627;50.920;12.050;2022-08-07T11:41:48;2.87;;;1.00;;
13122;SDS011;6627;50.920;12.050;2022-08-07T11:44:34;1.83;;;0.80;;
13122;SDS011;6627;50.920;12.050;2022-08-07T11:47:22;1.87;;;0.80;;
13122;SDS011;6627;50.920;12.050;2022-08-07T11:50:21;1.70;;;1.10;;
13122;SDS011;6627;50.920;12.050;2022-08-07T11:53:09;1.67;;;0.90;;
13122;SDS011;6627;50.920;12.050;2022-08-07T11:55:57;1.87;;;0.83;;
13122;SDS011;6627;50.920;12.050;2022-08-07T11:59:05;0.97;;;0.80;;
13122;SDS011;6627;50.920;12.050;2022-08-07T12:02:06;3.33;;;1.00;;
13122;SDS011;6627;50.920;12.050;2022-08-07T12:05:10;2.63;;;1.03;;
13122;SDS011;6627;50.920;12.050;2022-08-07T12:07:56;1.33;;;0.97;;
13122;SDS011;6627;50.920;12.050;2022-08-07T12:10:37;0.90;;;0.70;;
13122;SDS011;6627;50.920;12.050;2022-08-07T12:13:25;1.27;;;0.90;;
13122;SDS011;6627;50.920;12.050;2022-08-07T12:16:10;1.20;;;0.80;;
13122;SDS011;6627;50.920;12.050;2022-08-07T12:18:49;0.73;;;0.70;;
13122;SDS011;6627;50.920;12.050;2022-08-07T12:21:39;2.20;;;0.77;;
13122;SDS011;6627;50.920;12.050;2022-08-07T12:24:21;1.00;;;0.90;;
13122;SDS011;6627;50.920;12.050;2022-08-07T12:27:04;0.70;;;0.70;;
13122;SDS011;6627;50.920;12.050;2022-08-07T12:29:45;2.63;;;0.90;;
13122;SDS011;6627;50.920;12.050;2022-08-07T12:32:33;0.70;;;0.70;;
13122;SDS011;6627;50.920;12.050;2022-08-07T12:35:13;1.60;;;0.83;;
13122;SDS011;6627;50.920;12.050;2022-08-07T12:37:53;0.70;;;0.70;;
13122;SDS011;6627;50.920;12.050;2022-08-07T12:40:40;4.40;;;0.90;;
13122;SDS011;6627;50.920;12.050;2022-08-07T12:43:22;1.33;;;0.70;;
13122;SDS011;6627;50.920;12.050;2022-08-07T12:46:07;1.10;;;0.80;;
13122;SDS011;6627;50.920;12.050;2022-08-07T12:49:01;1.07;;;0.77;;
13122;SDS011;6627;50.920;12.050;2022-08-07T12:51:49;2.93;;;0.90;;
13122;SDS011;6627;50.920;12.050;2022-08-07T12:54:46;2.43;;;0.90;;
13122;SDS011;6627;50.920;12.050;2022-08-07T12:57:28;2.60;;;1.10;;
13122;SDS011;6627;50.920;12.050;2022-08-07T13:00:14;1.07;;;0.80;;
13122;SDS011;6627;50.920;12.050;2022-08-07T13:02:59;1.50;;;0.90;;
13122;SDS011;6627;50.920;12.050;2022-08-07T13:06:08;1.07;;;0.80;;
13122;SDS011;6627;50.920;12.050;2022-08-07T13:09:08;2.80;;;1.20;;
13122;SDS011;6627;50.920;12.050;2022-08-07T13:11:59;2.47;;;0.90;;
13122;SDS011;6627;50.920;12.050;2022-08-07T13:14:42;2.87;;;1.00;;
13122;SDS011;6627;50.920;12.050;2022-08-07T13:17:32;2.33;;;0.87;;
13122;SDS011;6627;50.920;12.050;2022-08-07T13:20:17;3.30;;;1.10;;
13122;SDS011;6627;50.920;12.050;2022-08-07T13:22:55;0.80;;;0.70;;
13122;SDS011;6627;50.920;12.050;2022-08-07T13:25:52;2.20;;;0.80;;
13122;SDS011;6627;50.920;12.050;2022-08-07T13:28:29;1.37;;;0.70;;
13122;SDS011;6627;50.920;12.050;2022-08-07T13:31:11;1.80;;;1.00;;
13122;SDS011;6627;50.920;12.050;2022-08-07T13:33:47;2.93;;;0.80;;
13122;SDS011;6627;50.920;12.050;2022-08-07T13:36:36;1.17;;;0.90;;
13122;SDS011;6627;50.920;12.050;2022-08-07T13:39:25;0.87;;;0.80;;
13122;SDS011;6627;50.920;12.050;2022-08-07T13:42:06;1.60;;;0.70;;
13122;SDS011;6627;50.920;12.050;2022-08-07T13:44:51;0.70;;;0.70;;
13122;SDS011;6627;50.920;12.050;2022-08-07T13:47:31;2.43;;;0.70;;
13122;SDS011;6627;50.920;12.050;2022-08-07T13:50:11;1.20;;;0.90;;
13122;SDS011;6627;50.920;12.050;2022-08-07T13:52:49;1.03;;;0.73;;
13122;SDS011;6627;50.920;12.050;2022-08-07T13:55:35;1.83;;;0.70;;
13122;SDS011;6627;50.920;12.050;2022-08-07T13:58:13;0.50;;;0.50;;
13122;SDS011;6627;50.920;12.050;2022-08-07T14:01:08;1.17;;;0.90;;
13122;SDS011;6627;50.920;12.050;2022-08-07T14:03:40;1.57;;;0.97;;
13122;SDS011;6627;50.920;12.050;2022-08-07T14:06:18;1.60;;;0.87;;
13122;SDS011;6627;50.920;12.050;2022-08-07T14:08:51;0.60;;;0.60;;
13122;SDS011;6627;50.920;12.050;2022-08-07T14:11:27;4.00;;;0.90;;
13122;SDS011;6627;50.920;12.050;2022-08-07T14:14:10;1.00;;;0.80;;
13122;SDS011;6627;50.920;12.050;2022-08-07T14:17:00;2.07;;;0.80;;
13122;SDS011;6627;50.920;12.050;2022-08-07T14:19:43;1.90;;;0.83;;
13122;SDS011;6627;50.920;12.050;2022-08-07T14:22:27;1.20;;;0.80;;
13122;SDS011;6627;50.920;12.050;2022-08-07T14:25:10;3.13;;;0.70;;
13122;SDS011;6627;50.920;12.050;2022-08-07T14:27:52;0.97;;;0.70;;
13122;SDS011;6627;50.920;12.050;2022-08-07T14:30:34;1.00;;;0.77;;
13122;SDS011;6627;50.920;12.050;2022-08-07T14:33:09;5.63;;;0.97;;
13122;SDS011;6627;50.920;12.050;2022-08-07T14:35:54;2.73;;;0.80;;
13122;SDS011;6627;50.920;12.050;2022-08-07T14:38:36;3.40;;;0.90;;
13122;SDS011;6627;50.920;12.050;2022-08-07T14:41:10;1.60;;;0.70;;
13122;SDS011;6627;50.920;12.050;2022-08-07T14:43:46;0.80;;;0.67;;
13122;SDS011;6627;50.920;12.050;2022-08-07T14:46:27;1.30;;;0.60;;
13122;SDS011;6627;50.920;12.050;2022-08-07T14:49:16;1.03;;;0.70;;
13122;SDS011;6627;50.920;12.050;2022-08-07T14:52:00;1.33;;;0.90;;
13122;SDS011;6627;50.920;12.050;2022-08-07T14:54:38;2.20;;;0.80;;
13122;SDS011;6627;50.920;12.050;2022-08-07T14:57:19;2.17;;;0.87;;
13122;SDS011;6627;50.920;12.050;2022-08-07T15:00:06;2.03;;;0.67;;
13122;SDS011;6627;50.920;12.050;2022-08-07T15:02:44;2.03;;;0.77;;
13122;SDS011;6627;50.920;12.050;2022-08-07T15:05:25;2.07;;;0.80;;
13122;SDS011;6627;50.920;12.050;2022-08-07T15:08:05;4.03;;;0.90;;
13122;SDS011;6627;50.920;12.050;2022-08-07T15:10:47;1.57;;;0.80;;
13122;SDS011;6627;50.920;12.050;2022-08-07T15:13:39;1.93;;;0.80;;
13122;SDS011;6627;50.920;12.050;2022-08-07T15:16:20;1.83;;;0.80;;
13122;SDS011;6627;50.920;12.050;2022-08-07T15:19:13;1.00;;;0.90;;
13122;SDS011;6627;50.920;12.050;2022-08-07T15:21:45;0.70;;;0.70;;
13122;SDS011;6627;50.920;12.050;2022-08-07T15:24:31;2.30;;;0.80;;
13122;SDS011;6627;50.920;12.050;2022-08-07T15:27:18;0.80;;;0.80;;
13122;SDS011;6627;50.920;12.050;2022-08-07T15:29:49;2.40;;;1.00;;
13122;SDS011;6627;50.920;12.050;2022-08-07T15:32:19;2.10;;;1.10;;
13122;SDS011;6627;50.920;12.050;2022-08-07T15:34:50;1.30;;;1.00;;
13122;SDS011;6627;50.920;12.050;2022-08-07T15:37:22;2.33;;;0.90;;
13122;SDS011;6627;50.920;12.050;2022-08-07T15:39:55;2.40;;;0.90;;
13122;SDS011;6627;50.920;12.050;2022-08-07T15:42:36;0.70;;;0.70;;
13122;SDS011;6627;50.920;12.050;2022-08-07T15:45:24;1.70;;;0.80;;
13122;SDS011;6627;50.920;12.050;2022-08-07T15:47:58;1.40;;;0.90;;
13122;SDS011;6627;50.920;12.050;2022-08-07T15:50:34;3.20;;;1.10;;
13122;SDS011;6627;50.920;12.050;2022-08-07T15:53:07;2.20;;;1.00;;
13122;SDS011;6627;50.920;12.050;2022-08-07T15:55:38;1.53;;;1.00;;
13122;SDS011;6627;50.920;12.050;2022-08-07T15:58:10;1.20;;;1.10;;
13122;SDS011;6627;50.920;12.050;2022-08-07T16:00:42;1.57;;;1.20;;
13122;SDS011;6627;50.920;12.050;2022-08-07T16:03:13;1.97;;;1.40;;
13122;SDS011;6627;50.920;12.050;2022-08-07T16:05:46;1.33;;;1.20;;